Alviso, California
Current Conditions -  °F | °C
As of 4:56 AM on Friday 31 Oct 2014 (Local Time) from KNUQ Reporting Station
Few Clouds Few Clouds  
Wind Chill: 63°   Ceiling: Unl
Heat Index: 63°   Visibility: 10mi
Dew Point: 56°   Wind: 9mph
Humidity: 78%   Direction: 140°SE
Pressure: 29.87"   Gusts: NA
Location:  37.43°N, 121.97°W
Report Text: KNUQ 311156Z AUTO 14008KT 10SM FEW044 17/13 A2987 RMK AO2 SLP117 T01720133 10172 20161 58015 TSNO
Loading
Personal Weather Stations






























Interactive Weather Map New forecast layout! Learn more

10-Day Weather Forecast

Advertisements
Track Severe Weather on mobile